N623GA KCID-KCLE
Flight info
| Callsign | N623GA |
|---|---|
| Flight time | N/A |
| Altitude | 21000 |
| Route | GIJ |
| Aircraft | KODI/L-SBDGRY/S |
Departure
| Time | 2026-04-23 21:35 |
|---|---|
| Airport | The Eastern Iowa Airport (KCID) |
Arrival
| Time | N/A |
|---|---|
| Airport | Cleveland Hopkins International Airport (KCLE) |
| Time | Latitude | Longitude | Altitude | Speed | Heading |
|---|---|---|---|---|---|
| 2026-04-23 21:12 | 41.88737 | -91.71538 | 869 ft | 0 kts | 0° |
| 2026-04-23 21:28 | 41.88738 | -91.71538 | 870 ft | 0 kts | 359° |
| 2026-04-23 21:29 | 41.88742 | -91.71538 | 871 ft | 0 kts | 10° |
| 2026-04-23 21:29 | 41.88734 | -91.71524 | 870 ft | 6 kts | 152° |
| 2026-04-23 21:29 | 41.88646 | -91.71509 | 861 ft | 16 kts | 176° |
| 2026-04-23 21:29 | 41.88581 | -91.71409 | 862 ft | 16 kts | 90° |
| 2026-04-23 21:30 | 41.88585 | -91.71255 | 868 ft | 19 kts | 89° |
| 2026-04-23 21:30 | 41.88575 | -91.71087 | 868 ft | 16 kts | 96° |
| 2026-04-23 21:30 | 41.88573 | -91.70912 | 867 ft | 22 kts | 87° |
| 2026-04-23 21:30 | 41.88586 | -91.70698 | 864 ft | 22 kts | 59° |
| 2026-04-23 21:31 | 41.88698 | -91.70782 | 868 ft | 25 kts | 317° |
| 2026-04-23 21:31 | 41.88841 | -91.70963 | 869 ft | 29 kts | 317° |
| 2026-04-23 21:31 | 41.88988 | -91.71151 | 872 ft | 29 kts | 316° |
| 2026-04-23 21:31 | 41.89125 | -91.71324 | 873 ft | 26 kts | 314° |
| 2026-04-23 21:32 | 41.89158 | -91.71410 | 873 ft | 0 kts | 241° |
| 2026-04-23 21:33 | 41.89157 | -91.71411 | 873 ft | 1 kts | 238° |
| 2026-04-23 21:34 | 41.89143 | -91.71428 | 873 ft | 0 kts | 230° |
| 2026-04-23 21:34 | 41.89131 | -91.71445 | 874 ft | 12 kts | 226° |
| 2026-04-23 21:34 | 41.88916 | -91.71269 | 906 ft | 61 kts | 140° |
| 2026-04-23 21:34 | 41.88624 | -91.70782 | 1084 ft | 71 kts | 142° |
| 2026-04-23 21:35 | 41.88229 | -91.70265 | 1305 ft | 89 kts | 145° |
| 2026-04-23 21:35 | 41.87697 | -91.69672 | 1536 ft | 107 kts | 152° |
| 2026-04-23 21:35 | 41.86964 | -91.69094 | 1677 ft | 128 kts | 146° |
| 2026-04-23 21:35 | 41.86757 | -91.67998 | 2252 ft | 131 kts | 91° |
| 2026-04-23 21:36 | 41.86475 | -91.65868 | 3022 ft | 115 kts | 122° |
| 2026-04-23 21:36 | 41.86291 | -91.64833 | 3442 ft | 114 kts | 119° |
| 2026-04-23 21:36 | 41.86128 | -91.63794 | 3808 ft | 117 kts | 118° |
| 2026-04-23 21:37 | 41.85968 | -91.62710 | 4174 ft | 120 kts | 117° |
| 2026-04-23 21:37 | 41.85813 | -91.61597 | 4546 ft | 122 kts | 116° |
| 2026-04-23 21:37 | 41.85656 | -91.60468 | 4867 ft | 124 kts | 116° |
| 2026-04-23 21:37 | 41.85496 | -91.59315 | 5140 ft | 127 kts | 116° |
| 2026-04-23 21:38 | 41.85331 | -91.58126 | 5434 ft | 132 kts | 117° |
| 2026-04-23 21:38 | 41.85166 | -91.56903 | 5749 ft | 135 kts | 114° |
| 2026-04-23 21:38 | 41.85001 | -91.55667 | 6059 ft | 137 kts | 118° |
| 2026-04-23 21:38 | 41.84821 | -91.54405 | 6376 ft | 138 kts | 116° |
| 2026-04-23 21:39 | 41.84649 | -91.53133 | 6679 ft | 139 kts | 115° |
| 2026-04-23 21:39 | 41.84475 | -91.51883 | 6948 ft | 137 kts | 116° |
| 2026-04-23 21:39 | 41.84302 | -91.50600 | 7246 ft | 139 kts | 114° |
| 2026-04-23 21:39 | 41.84133 | -91.49333 | 7553 ft | 139 kts | 114° |
| 2026-04-23 21:40 | 41.83957 | -91.48042 | 7839 ft | 142 kts | 115° |
| 2026-04-23 21:40 | 41.83780 | -91.46748 | 8127 ft | 141 kts | 115° |
| 2026-04-23 21:40 | 41.83596 | -91.45453 | 8388 ft | 142 kts | 115° |
| 2026-04-23 21:40 | 41.83406 | -91.44130 | 8682 ft | 145 kts | 114° |
| 2026-04-23 21:41 | 41.83229 | -91.42792 | 8981 ft | 146 kts | 113° |
| 2026-04-23 21:41 | 41.83044 | -91.41452 | 9273 ft | 146 kts | 114° |
| 2026-04-23 21:41 | 41.82859 | -91.40103 | 9555 ft | 148 kts | 113° |
| 2026-04-23 21:41 | 41.82673 | -91.38747 | 9822 ft | 147 kts | 114° |
| 2026-04-23 21:42 | 41.82484 | -91.37388 | 10076 ft | 149 kts | 113° |
| 2026-04-23 21:42 | 41.82296 | -91.36016 | 10330 ft | 150 kts | 112° |
| 2026-04-23 21:42 | 41.82107 | -91.34630 | 10582 ft | 152 kts | 112° |
| 2026-04-23 21:42 | 41.81913 | -91.33235 | 10867 ft | 154 kts | 112° |
| 2026-04-23 21:43 | 41.81718 | -91.31816 | 11164 ft | 155 kts | 112° |
| 2026-04-23 21:43 | 41.81520 | -91.30388 | 11466 ft | 157 kts | 112° |
| 2026-04-23 21:43 | 41.81318 | -91.28938 | 11750 ft | 159 kts | 112° |
| 2026-04-23 21:43 | 41.81118 | -91.27497 | 12020 ft | 161 kts | 111° |
| 2026-04-23 21:44 | 41.80911 | -91.26021 | 12310 ft | 162 kts | 111° |
| 2026-04-23 21:44 | 41.80703 | -91.24535 | 12580 ft | 163 kts | 111° |
| 2026-04-23 21:44 | 41.80495 | -91.23036 | 12836 ft | 164 kts | 111° |
| 2026-04-23 21:44 | 41.80284 | -91.21527 | 13094 ft | 166 kts | 110° |
| 2026-04-23 21:45 | 41.80069 | -91.19995 | 13348 ft | 167 kts | 110° |
| 2026-04-23 21:45 | 41.79853 | -91.18458 | 13586 ft | 169 kts | 110° |
| 2026-04-23 21:45 | 41.79636 | -91.16910 | 13813 ft | 169 kts | 110° |
| 2026-04-23 21:45 | 41.79420 | -91.15354 | 14028 ft | 170 kts | 110° |
| 2026-04-23 21:46 | 41.79202 | -91.13797 | 14226 ft | 170 kts | 110° |
| 2026-04-23 21:46 | 41.78982 | -91.12232 | 14422 ft | 172 kts | 109° |
| 2026-04-23 21:46 | 41.78760 | -91.10653 | 14633 ft | 172 kts | 110° |
| 2026-04-23 21:46 | 41.78535 | -91.09064 | 14819 ft | 174 kts | 110° |
| 2026-04-23 21:47 | 41.78308 | -91.07470 | 15032 ft | 174 kts | 109° |
| 2026-04-23 21:47 | 41.78084 | -91.05870 | 15232 ft | 175 kts | 109° |
| 2026-04-23 21:47 | 41.77859 | -91.04270 | 15440 ft | 175 kts | 109° |
| 2026-04-23 21:47 | 41.77633 | -91.02671 | 15628 ft | 176 kts | 110° |
| 2026-04-23 21:48 | 41.77407 | -91.01077 | 15805 ft | 176 kts | 109° |
| 2026-04-23 21:48 | 41.77178 | -90.99462 | 15975 ft | 178 kts | 110° |
| 2026-04-23 21:48 | 41.76945 | -90.97826 | 16157 ft | 178 kts | 109° |
| 2026-04-23 21:48 | 41.76715 | -90.96194 | 16333 ft | 178 kts | 109° |
| 2026-04-23 21:49 | 41.76482 | -90.94554 | 16511 ft | 179 kts | 109° |
| 2026-04-23 21:49 | 41.76248 | -90.92913 | 16679 ft | 180 kts | 109° |
| 2026-04-23 21:49 | 41.76013 | -90.91267 | 16838 ft | 180 kts | 109° |
| 2026-04-23 21:49 | 41.75777 | -90.89615 | 17000 ft | 181 kts | 109° |
| 2026-04-23 21:50 | 41.75542 | -90.87957 | 17205 ft | 178 kts | 108° |
| 2026-04-23 21:50 | 41.75318 | -90.86348 | 17448 ft | 175 kts | 109° |
| 2026-04-23 21:50 | 41.75086 | -90.84738 | 17626 ft | 177 kts | 109° |
| 2026-04-23 21:50 | 41.74852 | -90.83119 | 17817 ft | 177 kts | 109° |
| 2026-04-23 21:51 | 41.74622 | -90.81519 | 17989 ft | 178 kts | 109° |
| 2026-04-23 21:51 | 41.74388 | -90.79891 | 18148 ft | 179 kts | 109° |
| 2026-04-23 21:51 | 41.74154 | -90.78259 | 18311 ft | 177 kts | 109° |
| 2026-04-23 21:51 | 41.73931 | -90.76666 | 18540 ft | 172 kts | 109° |
| 2026-04-23 21:52 | 41.73703 | -90.75094 | 18713 ft | 171 kts | 109° |
| 2026-04-23 21:52 | 41.73477 | -90.73534 | 18895 ft | 170 kts | 108° |
| 2026-04-23 21:52 | 41.73251 | -90.71971 | 19056 ft | 171 kts | 109° |
| 2026-04-23 21:52 | 41.73023 | -90.70406 | 19218 ft | 171 kts | 109° |
| 2026-04-23 21:53 | 41.72797 | -90.68840 | 19369 ft | 173 kts | 109° |
| 2026-04-23 21:53 | 41.72568 | -90.67262 | 19534 ft | 173 kts | 109° |
| 2026-04-23 21:53 | 41.72340 | -90.65683 | 19693 ft | 173 kts | 109° |
| 2026-04-23 21:53 | 41.72110 | -90.64097 | 19849 ft | 173 kts | 109° |
| 2026-04-23 21:54 | 41.71882 | -90.62533 | 20021 ft | 174 kts | 109° |
| 2026-04-23 21:54 | 41.71652 | -90.60946 | 20194 ft | 175 kts | 109° |
| 2026-04-23 21:54 | 41.71418 | -90.59344 | 20354 ft | 175 kts | 109° |
| 2026-04-23 21:54 | 41.71185 | -90.57742 | 20501 ft | 176 kts | 109° |
| 2026-04-23 21:55 | 41.70950 | -90.56131 | 20647 ft | 176 kts | 109° |
| 2026-04-23 21:55 | 41.70713 | -90.54515 | 20744 ft | 180 kts | 109° |
| 2026-04-23 21:55 | 41.70461 | -90.52830 | 20751 ft | 189 kts | 108° |
| 2026-04-23 21:55 | 41.70203 | -90.51076 | 20755 ft | 195 kts | 108° |
| 2026-04-23 21:56 | 41.69941 | -90.49265 | 20761 ft | 200 kts | 108° |
| 2026-04-23 21:56 | 41.69672 | -90.47420 | 20754 ft | 203 kts | 107° |
| 2026-04-23 21:56 | 41.69399 | -90.45560 | 20754 ft | 205 kts | 107° |
| 2026-04-23 21:56 | 41.69123 | -90.43680 | 20757 ft | 206 kts | 107° |
| 2026-04-23 21:57 | 41.68847 | -90.41791 | 20759 ft | 207 kts | 107° |
| 2026-04-23 21:57 | 41.68573 | -90.39922 | 20767 ft | 208 kts | 107° |
| 2026-04-23 21:57 | 41.68293 | -90.38024 | 20747 ft | 208 kts | 107° |
| 2026-04-23 21:57 | 41.68014 | -90.36126 | 20753 ft | 208 kts | 107° |
| 2026-04-23 21:58 | 41.67736 | -90.34239 | 20759 ft | 207 kts | 107° |
| 2026-04-23 21:58 | 41.67455 | -90.32345 | 20757 ft | 207 kts | 106° |
| 2026-04-23 21:58 | 41.67175 | -90.30454 | 20764 ft | 207 kts | 107° |
| 2026-04-23 21:58 | 41.66895 | -90.28567 | 20758 ft | 207 kts | 107° |
| 2026-04-23 21:59 | 41.66616 | -90.26682 | 20760 ft | 207 kts | 107° |
| 2026-04-23 21:59 | 41.66337 | -90.24796 | 20762 ft | 207 kts | 107° |
| 2026-04-23 21:59 | 41.66056 | -90.22908 | 20763 ft | 207 kts | 107° |
| 2026-04-23 22:00 | 41.65494 | -90.19137 | 20763 ft | 207 kts | 107° |
| 2026-04-23 22:00 | 41.65213 | -90.17250 | 20762 ft | 207 kts | 107° |
| 2026-04-23 22:00 | 41.64932 | -90.15364 | 20762 ft | 207 kts | 107° |
| 2026-04-23 22:00 | 41.64648 | -90.13476 | 20760 ft | 207 kts | 107° |
| 2026-04-23 22:01 | 41.64460 | -90.12222 | 20764 ft | 207 kts | 107° |
| 2026-04-23 22:01 | 41.64087 | -90.09730 | 20761 ft | 206 kts | 107° |
| 2026-04-23 22:01 | 41.63805 | -90.07849 | 20763 ft | 206 kts | 107° |
| 2026-04-23 22:01 | 41.63523 | -90.05970 | 20760 ft | 206 kts | 107° |
| 2026-04-23 22:02 | 41.63238 | -90.04086 | 20763 ft | 207 kts | 107° |
| 2026-04-23 22:02 | 41.62955 | -90.02200 | 20767 ft | 207 kts | 107° |
| 2026-04-23 22:02 | 41.62766 | -90.00952 | 20768 ft | 207 kts | 107° |
| 2026-04-23 22:02 | 41.62481 | -89.99069 | 20776 ft | 207 kts | 106° |
| 2026-04-23 22:03 | 41.62196 | -89.97185 | 20772 ft | 206 kts | 106° |
| 2026-04-23 22:03 | 41.61913 | -89.95307 | 20762 ft | 207 kts | 106° |
| 2026-04-23 22:03 | 41.61627 | -89.93418 | 20768 ft | 207 kts | 106° |
| 2026-04-23 22:03 | 41.61339 | -89.91522 | 20767 ft | 208 kts | 107° |
| 2026-04-23 22:04 | 41.61051 | -89.89626 | 20768 ft | 208 kts | 106° |
| 2026-04-23 22:04 | 41.60764 | -89.87734 | 20756 ft | 208 kts | 106° |
| 2026-04-23 22:04 | 41.60474 | -89.85839 | 20766 ft | 207 kts | 106° |
| 2026-04-23 22:04 | 41.60192 | -89.83980 | 20773 ft | 207 kts | 106° |
| 2026-04-23 22:05 | 41.59904 | -89.82092 | 20776 ft | 207 kts | 106° |
| 2026-04-23 22:05 | 41.59615 | -89.80200 | 20776 ft | 208 kts | 106° |
| 2026-04-23 22:05 | 41.59324 | -89.78306 | 20777 ft | 208 kts | 106° |
| 2026-04-23 22:05 | 41.59035 | -89.76416 | 20769 ft | 208 kts | 106° |
| 2026-04-23 22:06 | 41.58745 | -89.74529 | 20771 ft | 207 kts | 106° |
| 2026-04-23 22:06 | 41.58456 | -89.72647 | 20772 ft | 207 kts | 106° |
| 2026-04-23 22:06 | 41.58167 | -89.70762 | 20772 ft | 207 kts | 106° |
| 2026-04-23 22:06 | 41.57876 | -89.68871 | 20788 ft | 208 kts | 107° |
| 2026-04-23 22:07 | 41.57583 | -89.66976 | 20789 ft | 208 kts | 106° |
| 2026-04-23 22:07 | 41.57292 | -89.65082 | 20782 ft | 208 kts | 106° |
| 2026-04-23 22:07 | 41.57001 | -89.63186 | 20781 ft | 208 kts | 106° |
| 2026-04-23 22:07 | 41.56709 | -89.61296 | 20786 ft | 208 kts | 107° |
| 2026-04-23 22:08 | 41.56415 | -89.59404 | 20774 ft | 208 kts | 107° |
| 2026-04-23 22:08 | 41.56117 | -89.57512 | 20778 ft | 209 kts | 107° |
| 2026-04-23 22:08 | 41.55824 | -89.55614 | 20779 ft | 209 kts | 106° |
| 2026-04-23 22:08 | 41.55532 | -89.53717 | 20793 ft | 208 kts | 106° |
| 2026-04-23 22:09 | 41.55237 | -89.51828 | 20796 ft | 208 kts | 106° |
| 2026-04-23 22:09 | 41.54943 | -89.49936 | 20789 ft | 208 kts | 106° |
| 2026-04-23 22:09 | 41.54649 | -89.48044 | 20794 ft | 208 kts | 106° |
| 2026-04-23 22:09 | 41.54354 | -89.46151 | 20786 ft | 208 kts | 106° |
| 2026-04-23 22:10 | 41.54061 | -89.44278 | 20795 ft | 209 kts | 106° |
| 2026-04-23 22:10 | 41.53772 | -89.42428 | 20794 ft | 208 kts | 106° |
| 2026-04-23 22:10 | 41.53479 | -89.40546 | 20781 ft | 207 kts | 105° |
| 2026-04-23 22:10 | 41.53185 | -89.38662 | 20796 ft | 207 kts | 106° |
| 2026-04-23 22:11 | 41.52889 | -89.36773 | 20800 ft | 208 kts | 106° |
| 2026-04-23 22:11 | 41.52592 | -89.34883 | 20799 ft | 209 kts | 106° |
| 2026-04-23 22:11 | 41.52292 | -89.32984 | 20801 ft | 209 kts | 106° |
| 2026-04-23 22:11 | 41.51993 | -89.31085 | 20797 ft | 208 kts | 106° |
| 2026-04-23 22:12 | 41.51694 | -89.29189 | 20803 ft | 208 kts | 106° |
| 2026-04-23 22:12 | 41.51396 | -89.27301 | 20801 ft | 208 kts | 106° |
| 2026-04-23 22:12 | 41.51100 | -89.25435 | 20794 ft | 208 kts | 106° |
| 2026-04-23 22:12 | 41.50802 | -89.23542 | 20800 ft | 209 kts | 106° |
| 2026-04-23 22:13 | 41.50502 | -89.21643 | 20808 ft | 209 kts | 105° |
| 2026-04-23 22:13 | 41.50199 | -89.19744 | 20807 ft | 210 kts | 105° |
| 2026-04-23 22:13 | 41.49898 | -89.17846 | 20809 ft | 209 kts | 105° |
| 2026-04-23 22:13 | 41.49597 | -89.15949 | 20810 ft | 209 kts | 105° |
| 2026-04-23 22:14 | 41.49297 | -89.14057 | 20807 ft | 209 kts | 105° |
| 2026-04-23 22:14 | 41.48995 | -89.12161 | 20802 ft | 209 kts | 105° |
| 2026-04-23 22:14 | 41.48692 | -89.10257 | 20799 ft | 209 kts | 105° |
| 2026-04-23 22:14 | 41.48388 | -89.08363 | 20798 ft | 209 kts | 105° |
| 2026-04-23 22:15 | 41.48084 | -89.06465 | 20802 ft | 209 kts | 105° |
| 2026-04-23 22:15 | 41.47782 | -89.04567 | 20819 ft | 209 kts | 105° |
| 2026-04-23 22:15 | 41.47484 | -89.02695 | 20813 ft | 209 kts | 105° |
| 2026-04-23 22:15 | 41.47176 | -89.00770 | 20816 ft | 210 kts | 105° |
| 2026-04-23 22:16 | 41.46870 | -88.98862 | 20807 ft | 210 kts | 105° |
| 2026-04-23 22:16 | 41.46566 | -88.96979 | 20804 ft | 210 kts | 105° |
| 2026-04-23 22:16 | 41.46260 | -88.95081 | 20805 ft | 209 kts | 105° |
| 2026-04-23 22:16 | 41.45956 | -88.93186 | 20813 ft | 209 kts | 105° |
| 2026-04-23 22:17 | 41.45649 | -88.91286 | 20819 ft | 209 kts | 105° |
| 2026-04-23 22:17 | 41.45342 | -88.89389 | 20810 ft | 210 kts | 105° |
| 2026-04-23 22:17 | 41.45034 | -88.87482 | 20815 ft | 210 kts | 105° |
| 2026-04-23 22:17 | 41.44726 | -88.85579 | 20815 ft | 210 kts | 105° |
| 2026-04-23 22:18 | 41.44419 | -88.83678 | 20817 ft | 209 kts | 104° |
| 2026-04-23 22:18 | 41.44115 | -88.81782 | 20817 ft | 209 kts | 105° |
| 2026-04-23 22:18 | 41.43808 | -88.79884 | 20818 ft | 210 kts | 105° |
| 2026-04-23 22:18 | 41.43497 | -88.77983 | 20816 ft | 210 kts | 105° |
| 2026-04-23 22:19 | 41.43187 | -88.76072 | 20826 ft | 211 kts | 105° |
| 2026-04-23 22:19 | 41.42876 | -88.74165 | 20827 ft | 210 kts | 105° |
| 2026-04-23 22:19 | 41.42569 | -88.72287 | 20827 ft | 210 kts | 105° |
| 2026-04-23 22:19 | 41.42260 | -88.70393 | 20825 ft | 209 kts | 105° |
| 2026-04-23 22:20 | 41.41951 | -88.68494 | 20826 ft | 209 kts | 105° |
| 2026-04-23 22:20 | 41.41641 | -88.66599 | 20825 ft | 210 kts | 105° |
| 2026-04-23 22:20 | 41.41331 | -88.64699 | 20826 ft | 210 kts | 105° |
| 2026-04-23 22:20 | 41.41020 | -88.62804 | 20828 ft | 210 kts | 105° |
| 2026-04-23 22:21 | 41.40709 | -88.60911 | 20838 ft | 209 kts | 105° |
| 2026-04-23 22:21 | 41.40397 | -88.59023 | 20838 ft | 209 kts | 105° |
| 2026-04-23 22:21 | 41.40087 | -88.57129 | 20835 ft | 209 kts | 105° |
| 2026-04-23 22:21 | 41.39776 | -88.55232 | 20834 ft | 209 kts | 105° |
| 2026-04-23 22:22 | 41.39463 | -88.53336 | 20834 ft | 210 kts | 105° |
| 2026-04-23 22:22 | 41.39148 | -88.51437 | 20834 ft | 209 kts | 105° |
| 2026-04-23 22:22 | 41.38839 | -88.49570 | 20836 ft | 209 kts | 105° |
| 2026-04-23 22:22 | 41.38527 | -88.47688 | 20836 ft | 208 kts | 105° |
| 2026-04-23 22:23 | 41.38217 | -88.45800 | 20837 ft | 209 kts | 105° |
| 2026-04-23 22:23 | 41.37904 | -88.43915 | 20839 ft | 208 kts | 105° |
| 2026-04-23 22:23 | 41.37591 | -88.42029 | 20838 ft | 208 kts | 105° |
| 2026-04-23 22:23 | 41.37278 | -88.40143 | 20839 ft | 208 kts | 105° |
| 2026-04-23 22:24 | 41.36967 | -88.38263 | 20840 ft | 208 kts | 105° |
| 2026-04-23 22:24 | 41.36658 | -88.36410 | 20840 ft | 207 kts | 105° |
| 2026-04-23 22:24 | 41.36345 | -88.34527 | 20837 ft | 208 kts | 105° |
| 2026-04-23 22:24 | 41.36033 | -88.32654 | 20839 ft | 208 kts | 106° |
| 2026-04-23 22:25 | 41.35719 | -88.30768 | 20843 ft | 208 kts | 105° |
| 2026-04-23 22:25 | 41.35404 | -88.28888 | 20844 ft | 208 kts | 105° |
| 2026-04-23 22:25 | 41.35088 | -88.27003 | 20844 ft | 208 kts | 105° |
| 2026-04-23 22:25 | 41.34774 | -88.25128 | 20843 ft | 208 kts | 105° |
| 2026-04-23 22:26 | 41.34460 | -88.23251 | 20837 ft | 208 kts | 105° |
| 2026-04-23 22:26 | 41.34146 | -88.21379 | 20839 ft | 208 kts | 105° |
| 2026-04-23 22:26 | 41.33834 | -88.19520 | 20838 ft | 208 kts | 106° |
| 2026-04-23 22:26 | 41.33517 | -88.17638 | 20839 ft | 208 kts | 105° |
| 2026-04-23 22:27 | 41.33199 | -88.15755 | 20844 ft | 208 kts | 105° |
| 2026-04-23 22:27 | 41.32883 | -88.13883 | 20844 ft | 207 kts | 105° |
| 2026-04-23 22:27 | 41.32568 | -88.12011 | 20846 ft | 208 kts | 106° |
| 2026-04-23 22:27 | 41.32252 | -88.10137 | 20847 ft | 208 kts | 106° |
| 2026-04-23 22:28 | 41.31934 | -88.08256 | 20848 ft | 208 kts | 106° |
| 2026-04-23 22:28 | 41.31616 | -88.06380 | 20849 ft | 208 kts | 106° |
| 2026-04-23 22:28 | 41.31298 | -88.04503 | 20850 ft | 208 kts | 106° |
| 2026-04-23 22:28 | 41.30981 | -88.02633 | 20851 ft | 207 kts | 106° |
| 2026-04-23 22:29 | 41.30664 | -88.00768 | 20853 ft | 207 kts | 107° |
| 2026-04-23 22:29 | 41.30346 | -87.98896 | 20854 ft | 208 kts | 106° |
| 2026-04-23 22:29 | 41.30027 | -87.97021 | 20854 ft | 208 kts | 107° |
| 2026-04-23 22:29 | 41.29711 | -87.95167 | 20854 ft | 208 kts | 106° |
| 2026-04-23 22:30 | 41.29391 | -87.93290 | 20855 ft | 208 kts | 107° |
| 2026-04-23 22:30 | 41.29072 | -87.91420 | 20856 ft | 207 kts | 107° |
| 2026-04-23 22:30 | 41.28752 | -87.89545 | 20857 ft | 207 kts | 107° |
| 2026-04-23 22:30 | 41.28433 | -87.87682 | 20858 ft | 207 kts | 106° |
| 2026-04-23 22:31 | 41.28113 | -87.85809 | 20858 ft | 207 kts | 107° |
| 2026-04-23 22:31 | 41.27794 | -87.83941 | 20858 ft | 207 kts | 106° |
| 2026-04-23 22:31 | 41.27474 | -87.82076 | 20857 ft | 207 kts | 107° |
| 2026-04-23 22:31 | 41.27162 | -87.80259 | 20859 ft | 206 kts | 106° |
| 2026-04-23 22:32 | 41.26986 | -87.78400 | 20856 ft | 208 kts | 89° |